Sand Key, FL current weather conditions

sailwx.info

Wind from 190 at 5 knots gusting 6

Air temperature 28.8° C
Dewpoint 23.3° C

Last reported at 2016-Jun-30 12:50 UTC.
Time now 2016-Jun-30 14:10 UTC

Location: N 24°28' W 081°53'.
View on Google Maps.

See reports from other nearby stations

  
Tides and Currents Weather Stations Pressure Air Temp Water Temp Dewpoint Dewpoint Depression Visibility Wind Speed Wind Dir Waves Ship Positions
date/time (UTC)wind fromknots sea level pressurealtimeterstation pressurevisibilityair tempwater tempwave heightnotes
2016-Jun-30 12:50 190 5 gusting 6 28.8
2016-Jun-30 11:50 190 6 gusting 8 28.5
2016-Jun-30 10:50 200 6 gusting 7 28.5
2016-Jun-30 09:50 360 2 gusting 5 28.4
2016-Jun-30 08:50 28.5
2016-Jun-30 07:50 28.6
2016-Jun-30 06:50 28.4
2016-Jun-30 05:50 070 5 gusting 10 27.7
2016-Jun-30 04:50 28.8
2016-Jun-30 03:50 29.0
2016-Jun-30 02:50 100 4 gusting 7 28.8
2016-Jun-30 01:50 140 5 gusting 7 28.9
2016-Jun-30 00:50 140 4 gusting 6 28.9
2016-Jun-29 22:50 150 4 gusting 6 29.1
2016-Jun-29 21:50 110 2 gusting 3 29.0
2016-Jun-29 20:50 120 4 gusting 6 28.8
2016-Jun-29 19:50 180 5 gusting 8 28.9
2016-Jun-29 18:50 170 5 gusting 8 28.8
2016-Jun-29 17:50 170 5 gusting 6 28.7
2016-Jun-29 16:50 160 4 gusting 5 28.6
2016-Jun-29 15:50 170 4 gusting 6 28.5
2016-Jun-29 14:50 110 5 gusting 11 28.4
2016-Jun-29 13:50 160 5 gusting 7 28.6
2016-Jun-29 12:50 140 5 gusting 6 28.6
2016-Jun-29 11:50 090 4 gusting 7 28.6
2016-Jun-29 10:50 180 2 gusting 3 28.1
2016-Jun-29 09:50 170 6 gusting 7 27.6
2016-Jun-29 08:50 190 4 gusting 6 27.8
2016-Jun-29 07:50 250 8 gusting 10 27.0
2016-Jun-29 06:50 300 5 gusting 6 26.0
2016-Jun-29 05:50 140 6 gusting 7 28.5
2016-Jun-29 04:50 140 7 gusting 9 28.5
2016-Jun-29 03:50 150 7 gusting 9 28.5
2016-Jun-29 01:50 130 6 gusting 9 28.6
2016-Jun-29 00:50 140 6 gusting 8 28.5
2016-Jun-28 22:50 170 4 gusting 5 28.8
2016-Jun-28 21:50 140 4 gusting 5 28.8
2016-Jun-28 20:50 100 4 gusting 6 28.6
2016-Jun-28 19:50 120 5 gusting 8 28.4
2016-Jun-28 18:50 150 5 gusting 7 28.4
2016-Jun-28 17:50 150 4 gusting 5 28.4
2016-Jun-28 16:50 070 3 gusting 5 28.3
2016-Jun-28 15:50 100 3 gusting 4 28.2
2016-Jun-28 14:50 070 3 gusting 4 28.3